createdAt,value
2022-09-06T00:04:50.752Z,10.30
2022-09-06T00:10:15.702Z,10.27
2022-09-06T00:15:28.364Z,10.24
2022-09-06T00:20:42.592Z,10.21
2022-09-06T00:26:04.600Z,10.18
2022-09-06T00:31:23.618Z,10.11
2022-09-06T00:36:34.425Z,10.04
2022-09-06T00:41:53.798Z,9.98
2022-09-06T00:47:00.022Z,9.88
2022-09-06T00:52:27.567Z,9.81
2022-09-06T00:57:54.209Z,9.74
2022-09-06T01:03:11.571Z,9.65
2022-09-06T01:08:28.050Z,9.58
2022-09-06T01:13:50.654Z,9.53
2022-09-06T01:19:05.535Z,9.50
2022-09-06T01:24:32.340Z,9.50
2022-09-06T01:29:49.819Z,9.52
2022-09-06T01:35:13.891Z,9.56
2022-09-06T01:40:28.119Z,9.59
2022-09-06T01:45:59.257Z,9.53
2022-09-06T01:51:31.101Z,9.46
2022-09-06T01:56:51.918Z,9.36
2022-09-06T02:02:04.070Z,9.25
2022-09-06T02:07:22.261Z,9.15
2022-09-06T02:12:51.510Z,9.06
2022-09-06T02:18:19.810Z,8.98
2022-09-06T02:23:40.809Z,8.91
2022-09-06T02:29:06.282Z,8.85
2022-09-06T02:34:21.401Z,8.81
2022-09-06T02:39:47.577Z,8.75
2022-09-06T02:44:53.885Z,8.69
2022-09-06T02:49:59.670Z,8.60
2022-09-06T02:55:06.168Z,8.50
2022-09-06T03:00:13.299Z,8.49
2022-09-06T03:05:30.901Z,8.52
2022-09-06T03:10:53.434Z,8.56
2022-09-06T03:16:20.346Z,8.62
2022-09-06T03:21:26.788Z,8.62
2022-09-06T03:26:35.649Z,8.64
2022-09-06T03:31:41.618Z,8.58
2022-09-06T03:36:47.446Z,8.53
2022-09-06T03:42:05.604Z,8.49
2022-09-06T03:47:11.921Z,8.42
2022-09-06T03:52:38.441Z,8.36
2022-09-06T03:57:46.076Z,8.27
2022-09-06T04:03:02.319Z,8.22
2022-09-06T04:08:11.760Z,8.16
2022-09-06T04:13:38.236Z,8.18
2022-09-06T04:19:05.585Z,8.22
2022-09-06T04:24:19.334Z,8.27
2022-09-06T04:29:25.625Z,8.32
2022-09-06T04:34:31.758Z,8.35
2022-09-06T04:39:48.536Z,8.38
2022-09-06T04:44:54.188Z,8.38
2022-09-06T04:50:00.171Z,8.40
2022-09-06T04:55:17.660Z,8.49
2022-09-06T05:00:50.667Z,8.60
2022-09-06T05:06:32.535Z,8.88
2022-09-06T05:12:11.648Z,9.44
2022-09-06T05:17:17.336Z,10.07
2022-09-06T05:22:25.539Z,10.74
2022-09-06T05:27:43.749Z,11.45
2022-09-06T05:32:52.373Z,12.01
2022-09-06T05:37:58.412Z,12.47
2022-09-06T05:43:04.502Z,12.94
2022-09-06T05:48:36.090Z,13.44
2022-09-06T05:54:00.847Z,13.82
2022-09-06T05:59:19.668Z,13.99
2022-09-06T06:04:25.620Z,14.34
2022-09-06T06:09:33.622Z,14.73
2022-09-06T06:14:45.021Z,15.04
2022-09-06T06:19:50.871Z,15.43
2022-09-06T06:25:17.260Z,15.58
2022-09-06T06:30:23.459Z,15.67
2022-09-06T06:35:38.298Z,15.60
2022-09-06T06:41:00.089Z,15.47
2022-09-06T06:46:08.983Z,15.54
2022-09-06T06:51:38.310Z,15.58
2022-09-06T06:57:04.589Z,15.71
2022-09-06T07:02:19.924Z,15.88
2022-09-06T07:07:31.010Z,15.96
2022-09-06T07:12:42.488Z,15.93
2022-09-06T07:17:57.941Z,16.26
2022-09-06T07:28:31.799Z,16.98
2022-09-06T07:33:46.636Z,17.51
2022-09-06T07:38:52.516Z,18.17
2022-09-06T07:43:58.485Z,18.76
2022-09-06T07:49:05.591Z,19.73
2022-09-06T07:54:30.069Z,20.42
2022-09-06T07:59:42.797Z,21.12
2022-09-06T08:04:53.769Z,21.68
2022-09-06T08:09:59.383Z,21.67
2022-09-06T08:15:05.599Z,21.97
2022-09-06T08:20:14.381Z,21.93
2022-09-06T08:25:28.937Z,22.05
2022-09-06T08:30:35.546Z,21.98
2022-09-06T08:35:41.617Z,22.31
2022-09-06T08:40:47.792Z,22.99
2022-09-06T08:45:57.723Z,23.14
2022-09-06T08:51:16.645Z,23.01
2022-09-06T08:56:25.094Z,22.93
2022-09-06T09:01:35.191Z,22.61
2022-09-06T09:06:41.228Z,21.86
2022-09-06T09:11:52.375Z,21.43
2022-09-06T09:17:06.187Z,20.78
2022-09-06T09:22:12.190Z,20.29
2022-09-06T09:27:20.510Z,19.77
2022-09-06T09:32:32.355Z,19.32
2022-09-06T09:42:51.436Z,18.96
2022-09-06T09:48:17.013Z,18.89
2022-09-06T09:53:31.417Z,18.75
2022-09-06T09:58:41.095Z,18.60
2022-09-06T10:09:31.306Z,18.60
2022-09-06T10:14:46.373Z,18.43
2022-09-06T10:19:54.035Z,18.51
2022-09-06T10:25:12.055Z,18.74
2022-09-06T10:30:20.820Z,18.68
2022-09-06T10:35:27.994Z,18.64
2022-09-06T10:40:42.808Z,18.68
2022-09-06T10:45:53.027Z,18.72
2022-09-06T10:51:14.230Z,18.92
2022-09-06T10:56:26.103Z,18.95
2022-09-06T11:01:37.528Z,19.07
2022-09-06T11:06:45.528Z,19.14
2022-09-06T11:11:54.567Z,19.16
2022-09-06T11:17:05.233Z,19.16
2022-09-06T11:22:33.769Z,19.30
2022-09-06T11:27:40.623Z,19.39
2022-09-06T11:32:51.377Z,19.47
2022-09-06T11:38:02.630Z,19.42
2022-09-06T11:43:12.552Z,19.35
2022-09-06T11:48:36.674Z,19.32
2022-09-06T11:54:06.353Z,19.46
2022-09-06T11:59:28.017Z,19.61
2022-09-06T12:04:51.054Z,19.74
2022-09-06T12:09:56.955Z,19.79
2022-09-06T12:15:22.662Z,19.72
2022-09-06T12:20:45.737Z,19.62
2022-09-06T12:26:01.163Z,19.77
2022-09-06T12:31:28.558Z,19.91
2022-09-06T12:36:34.822Z,20.00
2022-09-06T12:41:44.793Z,19.89
2022-09-06T12:46:52.340Z,19.61
2022-09-06T12:52:08.870Z,19.43
2022-09-06T12:57:16.631Z,19.45
2022-09-06T13:02:38.552Z,19.49
2022-09-06T13:07:46.595Z,19.63
2022-09-06T13:12:53.379Z,19.76
2022-09-06T13:18:15.024Z,19.86
2022-09-06T13:23:22.780Z,19.94
2022-09-06T13:28:37.911Z,20.02
2022-09-06T13:33:43.568Z,20.13
2022-09-06T13:38:49.424Z,20.19
2022-09-06T13:44:04.367Z,20.23
2022-09-06T13:49:17.910Z,20.04
2022-09-06T13:54:27.395Z,19.85
2022-09-06T13:59:33.715Z,19.85
2022-09-06T14:04:49.002Z,19.79
2022-09-06T14:10:08.439Z,19.71
2022-09-06T14:15:21.887Z,19.78
2022-09-06T14:20:30.931Z,19.81
2022-09-06T14:25:37.721Z,19.66
2022-09-06T14:30:43.612Z,19.61
2022-09-06T14:36:11.164Z,19.66
2022-09-06T14:41:18.372Z,19.69
2022-09-06T14:46:25.908Z,19.66
2022-09-06T14:51:32.255Z,19.63
2022-09-06T14:56:40.336Z,19.56
2022-09-06T15:01:46.204Z,19.47
2022-09-06T15:06:52.258Z,19.42
2022-09-06T15:11:58.095Z,19.41
2022-09-06T15:17:06.050Z,19.40
2022-09-06T15:22:11.877Z,19.29
2022-09-06T15:27:19.140Z,19.25
2022-09-06T15:32:32.809Z,19.20
2022-09-06T15:37:38.559Z,19.10
2022-09-06T15:42:45.208Z,19.05
2022-09-06T15:47:51.245Z,19.01
2022-09-06T15:52:57.208Z,19.00
2022-09-06T15:58:03.221Z,19.03
2022-09-06T16:03:09.156Z,19.00
2022-09-06T16:08:14.949Z,18.95
2022-09-06T16:13:33.267Z,18.90
2022-09-06T16:18:39.990Z,18.85
2022-09-06T16:23:51.289Z,18.81
2022-09-06T16:28:56.925Z,18.74
2022-09-06T16:34:03.266Z,18.66
2022-09-06T16:39:09.680Z,18.59
2022-09-06T16:44:17.006Z,18.53
2022-09-06T16:49:23.169Z,18.46
2022-09-06T16:54:29.513Z,18.39
2022-09-06T16:59:35.623Z,18.28
2022-09-06T17:04:41.506Z,18.14
2022-09-06T17:09:51.256Z,17.96
2022-09-06T17:14:56.858Z,17.79
2022-09-06T17:20:12.874Z,17.60
2022-09-06T17:25:25.915Z,17.38
2022-09-06T17:30:40.051Z,17.16
2022-09-06T17:35:46.103Z,16.95
2022-09-06T17:41:01.316Z,16.77
2022-09-06T17:46:07.678Z,16.58
2022-09-06T17:51:21.274Z,16.38
2022-09-06T17:56:27.068Z,16.18
2022-09-06T18:01:36.995Z,16.01
2022-09-06T18:06:44.736Z,15.86
2022-09-06T18:11:52.725Z,15.69
2022-09-06T18:17:09.923Z,15.51
2022-09-06T18:22:18.787Z,15.34
2022-09-06T18:27:36.337Z,15.18
2022-09-06T18:32:47.784Z,15.03
2022-09-06T18:38:06.041Z,14.90
2022-09-06T18:43:37.611Z,14.79
2022-09-06T18:48:49.133Z,14.67
2022-09-06T18:53:57.035Z,14.57
2022-09-06T18:59:07.853Z,14.47
2022-09-06T19:04:29.562Z,14.37
2022-09-06T19:09:42.269Z,14.28
2022-09-06T19:15:03.949Z,14.20
2022-09-06T19:20:33.660Z,14.12
2022-09-06T19:25:57.585Z,14.02
2022-09-06T19:31:17.938Z,13.92
2022-09-06T19:36:46.142Z,13.83
2022-09-06T19:41:55.438Z,13.77
2022-09-06T19:47:09.323Z,13.70
2022-09-06T19:52:37.601Z,13.63
2022-09-06T19:57:59.815Z,13.55
2022-09-06T20:03:13.349Z,13.46
2022-09-06T20:08:24.929Z,13.36
2022-09-06T20:13:37.593Z,13.29
2022-09-06T20:19:28.353Z,13.19
2022-09-06T20:24:42.615Z,13.10
2022-09-06T20:29:49.926Z,13.03
2022-09-06T20:35:07.485Z,12.96
2022-09-06T20:40:29.407Z,12.88
2022-09-06T20:45:39.356Z,12.82
2022-09-06T20:51:08.708Z,12.72
2022-09-06T20:56:40.630Z,12.64
2022-09-06T21:01:59.771Z,12.57
2022-09-06T21:07:25.002Z,12.49
2022-09-06T21:13:01.004Z,12.41
2022-09-06T21:18:39.106Z,12.37
2022-09-06T21:24:03.938Z,12.29
2022-09-06T21:29:34.890Z,12.21
2022-09-06T21:35:16.270Z,12.10
2022-09-06T21:40:31.812Z,12.00
2022-09-06T21:45:51.506Z,11.89
2022-09-06T21:51:00.837Z,11.80
2022-09-06T21:56:21.026Z,11.72
2022-09-06T22:01:45.095Z,11.65
2022-09-06T22:07:02.262Z,11.60
2022-09-06T22:12:14.196Z,11.53
2022-09-06T22:17:28.069Z,11.47
2022-09-06T22:23:00.354Z,11.41
2022-09-06T22:28:24.265Z,11.32
2022-09-06T22:33:41.289Z,11.23
2022-09-06T22:38:58.620Z,11.15
2022-09-06T22:44:09.307Z,11.11
2022-09-06T22:49:16.855Z,11.03
2022-09-06T22:54:33.519Z,10.97
2022-09-06T22:59:43.109Z,10.94
2022-09-06T23:05:09.304Z,10.88
2022-09-06T23:10:21.947Z,10.84
2022-09-06T23:15:42.287Z,10.81
2022-09-06T23:20:49.295Z,10.75
2022-09-06T23:25:56.053Z,10.71
2022-09-06T23:31:09.275Z,10.66
2022-09-06T23:36:19.059Z,10.59
2022-09-06T23:41:26.324Z,10.50
2022-09-06T23:46:55.778Z,10.38
2022-09-06T23:52:17.073Z,10.26
2022-09-06T23:57:33.130Z,10.22
